Time;durP1;ratioP1;P1;durP2;ratioP2;P2;SDS_P1;SDS_P2;PMS_P1;PMS_P2;Temp;Humidity;BMP_temperature;BMP_pressure;BME280_temperature;BME280_humidity;BME280_pressure;Samples;Min_cycle;Max_cycle;Signal;HPM_P1;HPM_P2
2022/02/09 00:00:09;;;;;;;24.53;20.40;;;;;;;9.95;89.06;101825.13;5081638;28;20700;-71
2022/02/09 00:02:45;;;;;;;25.10;18.87;;;;;;;9.70;89.90;101829.59;5064323;28;20423;-70
2022/02/09 00:05:29;;;;;;;22.40;16.03;;;;;;;9.43;90.41;101822.69;5081748;28;20519;-71
2022/02/09 00:10:23;;;;;;;21.97;17.40;;;;;;;9.62;89.86;101823.28;5081397;28;20480;-71
2022/02/09 00:13:12;;;;;;;22.80;19.13;;;;;;;9.72;90.56;101822.69;5081551;28;20773;-71
2022/02/09 00:15:48;;;;;;;23.40;18.40;;;;;;;9.65;90.35;101815.53;5081286;28;20475;-69
2022/02/09 00:36:15;;;;;;;21.43;18.00;;;;;;;9.82;90.85;101808.22;5061076;28;20898;-70
2022/02/09 00:38:49;;;;;;;24.80;19.00;;;;;;;9.70;90.45;101813.06;5061608;28;20446;-70
2022/02/09 01:11:17;;;;;;;25.13;20.60;;;;;;;9.71;91.25;101820.03;5060594;28;20429;-68
2022/02/09 01:11:36;;;;;;;27.47;22.13;;;;;;;9.94;89.92;101815.53;5060375;28;20386;-68
2022/02/09 01:38:54;;;;;;;22.50;18.27;;;;;;;9.93;89.37;101816.34;5060122;28;20418;-68
2022/02/09 01:42:39;;;;;;;22.50;19.33;;;;;;;10.13;88.17;101821.28;5059921;28;20772;-68
2022/02/09 01:44:37;;;;;;;24.47;20.33;;;;;;;9.87;89.55;101821.41;5059437;28;20486;-69
2022/02/09 01:55:34;;;;;;;22.37;18.40;;;;;;;9.59;90.99;101811.03;5059555;28;20497;-68
2022/02/09 01:58:00;;;;;;;22.67;18.43;;;;;;;9.70;91.23;101800.03;5060114;28;20848;-68
2022/02/09 02:00:26;;;;;;;22.07;19.00;;;;;;;9.58;91.49;101804.06;5059854;28;20443;-68
2022/02/09 02:02:52;;;;;;;20.53;18.33;;;;;;;9.49;91.23;101793.34;5064025;28;20189;-70
2022/02/09 02:05:17;;;;;;;22.50;18.63;;;;;;;9.76;90.58;101793.31;5064542;28;20431;-68
2022/02/09 02:10:12;;;;;;;22.40;16.80;;;;;;;9.98;89.37;101793.06;5062398;28;20169;-69
2022/02/09 02:13:08;;;;;;;21.67;18.50;;;;;;;9.69;89.64;101786.16;5060081;28;20739;-69
2022/02/09 02:18:15;;;;;;;18.50;15.30;;;;;;;9.77;89.58;101789.88;5058612;28;20699;-68
2022/02/09 02:20:56;;;;;;;19.10;17.07;;;;;;;9.63;89.76;101791.16;5058916;28;20410;-68
2022/02/09 02:36:49;;;;;;;16.10;14.40;;;;;;;9.69;89.24;101786.16;5058655;28;20812;-68
2022/02/09 03:14:04;;;;;;;22.87;19.10;;;;;;;9.25;90.12;101757.94;5058078;28;20436;-68
2022/02/09 03:16:36;;;;;;;21.90;19.07;;;;;;;9.49;89.71;101751.72;5058072;28;20430;-68
2022/02/09 03:19:35;;;;;;;19.87;17.73;;;;;;;9.36;89.24;101759.97;5058070;28;20923;-69
2022/02/09 03:56:42;;;;;;;30.00;25.13;;;;;;;9.69;89.74;101739.28;5057588;28;20481;-68
2022/02/09 03:59:07;;;;;;;33.57;26.23;;;;;;;9.35;90.05;101735.69;5040335;28;20184;-69
2022/02/09 04:01:36;;;;;;;35.40;26.17;;;;;;;9.49;89.67;101735.22;5057565;28;20806;-68
2022/02/09 04:04:02;;;;;;;29.97;26.07;;;;;;;9.42;90.11;101739.34;5057539;28;20213;-69
2022/02/09 04:06:33;;;;;;;29.63;25.47;;;;;;;9.33;89.66;101739.94;5058533;28;20443;-69
2022/02/09 04:09:00;;;;;;;27.70;24.33;;;;;;;9.39;89.25;101734.94;5058306;28;20197;-69
2022/02/09 04:14:19;;;;;;;30.97;25.13;;;;;;;9.63;88.72;101739.09;5058087;28;20390;-68
2022/02/09 04:19:29;;;;;;;31.23;25.03;;;;;;;9.52;89.61;101724.88;5057806;28;20542;-69
2022/02/09 04:38:39;;;;;;;34.10;26.07;;;;;;;9.49;88.87;101724.81;5057495;28;20719;-69
2022/02/09 04:43:46;;;;;;;40.80;24.27;;;;;;;9.39;88.07;101716.72;5043434;28;20391;-69
2022/02/09 04:46:48;;;;;;;31.80;25.33;;;;;;;9.65;87.19;101718.31;5061035;28;20165;-68
2022/02/09 04:51:57;;;;;;;30.40;23.93;;;;;;;9.43;87.11;101709.84;5060968;28;20770;-69
2022/02/09 04:54:29;;;;;;;34.00;25.07;;;;;;;9.64;86.52;101699.22;5060432;28;20174;-68
2022/02/09 04:59:40;;;;;;;32.80;25.03;;;;;;;9.44;86.58;101702.13;5060670;28;20448;-71
2022/02/09 05:05:02;;;;;;;29.83;24.40;;;;;;;9.61;85.91;101683.50;5044131;28;20424;-69
2022/02/09 05:18:58;;;;;;;30.00;23.50;;;;;;;9.65;85.49;101700.06;5060430;28;20419;-67
2022/02/09 05:27:03;;;;;;;26.77;23.77;;;;;;;9.50;86.18;101695.31;5061166;28;20394;-68
2022/02/09 05:29:16;;;;;;;30.10;22.87;;;;;;;9.46;85.60;101689.16;5059787;28;20387;-68
2022/02/09 05:31:41;;;;;;;30.90;21.83;;;;;;;9.67;85.88;101688.88;5060479;28;20382;-67
2022/02/09 05:34:09;;;;;;;27.20;22.83;;;;;;;9.58;85.20;101686.03;5060014;28;20173;-68
2022/02/09 05:36:35;;;;;;;24.13;21.07;;;;;;;9.43;85.61;101689.03;5060587;28;20182;-67
2022/02/09 05:39:00;;;;;;;28.47;22.30;;;;;;;9.42;86.12;101688.16;5042797;28;20435;-68
2022/02/09 05:41:25;;;;;;;30.27;22.20;;;;;;;9.35;86.79;101690.53;5060046;28;20416;-68
2022/02/09 05:43:51;;;;;;;28.57;21.77;;;;;;;9.30;85.87;101687.81;5042592;28;20183;-68
2022/02/09 05:51:51;;;;;;;28.53;22.27;;;;;;;9.67;85.37;101693.22;5059695;28;20407;-68
2022/02/09 05:57:24;;;;;;;31.90;23.00;;;;;;;9.59;85.72;101700.78;5059522;28;20466;-69
2022/02/09 05:59:49;;;;;;;28.33;21.40;;;;;;;9.29;87.49;101696.44;5060565;28;20382;-68
2022/02/09 06:02:16;;;;;;;28.40;20.40;;;;;;;9.57;86.69;101686.88;5059579;28;20435;-68
2022/02/09 06:04:42;;;;;;;30.60;22.00;;;;;;;9.42;86.51;101689.91;5059366;28;20450;-69
2022/02/09 06:07:07;;;;;;;28.60;20.77;;;;;;;9.31;87.19;101679.16;5059958;28;20404;-67
2022/02/09 06:09:33;;;;;;;25.33;20.40;;;;;;;9.89;85.70;101685.16;5059348;28;20190;-68
2022/02/09 06:12:13;;;;;;;28.63;22.10;;;;;;;9.54;86.41;101684.16;5059207;28;20227;-69
2022/02/09 06:14:55;;;;;;;25.80;20.40;;;;;;;9.84;85.84;101681.56;5059316;28;20531;-69
2022/02/09 06:20:08;;;;;;;27.53;21.57;;;;;;;9.46;86.79;101681.34;5059249;28;20715;-71
2022/02/09 06:22:33;;;;;;;29.13;21.97;;;;;;;9.47;86.45;101684.81;5059466;28;20470;-68
2022/02/09 06:24:59;;;;;;;31.80;22.00;;;;;;;9.10;88.02;101693.25;5059015;28;20670;-67
2022/02/09 06:27:24;;;;;;;26.60;20.57;;;;;;;9.44;87.71;101686.50;5059077;28;20848;-68
2022/02/09 06:29:50;;;;;;;30.30;20.20;;;;;;;9.21;87.44;101690.13;5059514;28;20169;-68
2022/02/09 06:32:17;;;;;;;31.83;20.40;;;;;;;9.56;87.34;101688.56;5059016;28;20170;-70
2022/02/09 06:34:43;;;;;;;26.23;20.40;;;;;;;9.28;87.72;101681.66;5058661;28;20279;-67
2022/02/09 06:37:14;;;;;;;27.80;20.70;;;;;;;9.25;87.87;101679.88;5059290;28;20450;-68
2022/02/09 06:39:44;;;;;;;27.70;21.10;;;;;;;9.43;87.78;101674.31;5058880;28;20412;-68
2022/02/09 06:42:10;;;;;;;28.90;21.30;;;;;;;9.24;86.74;101682.41;5058882;28;20404;-68
2022/02/09 06:44:35;;;;;;;30.47;20.70;;;;;;;9.38;87.57;101681.09;5058448;28;20859;-68
2022/02/09 06:47:00;;;;;;;31.63;21.73;;;;;;;9.49;87.17;101681.44;5041194;28;20176;-68
2022/02/09 06:49:26;;;;;;;35.27;23.47;;;;;;;9.54;86.82;101681.53;5058867;28;20272;-68
2022/02/09 06:51:51;;;;;;;30.33;21.60;;;;;;;9.17;86.94;101665.72;5058286;28;20201;-66
2022/02/09 06:54:32;;;;;;;27.17;20.00;;;;;;;9.68;85.75;101669.81;5058205;28;20178;-69
2022/02/09 06:57:07;;;;;;;28.20;21.73;;;;;;;9.31;85.15;101667.84;5040895;28;20201;-68
2022/02/09 06:59:38;;;;;;;27.80;20.53;;;;;;;8.96;86.40;101681.56;5058510;28;20386;-68
2022/02/09 07:02:06;;;;;;;30.60;20.03;;;;;;;9.22;86.82;101678.88;5058383;28;20477;-68
2022/02/09 07:04:33;;;;;;;26.23;19.17;;;;;;;9.09;86.23;101681.13;5058066;28;20727;-67
2022/02/09 07:06:58;;;;;;;27.67;21.13;;;;;;;9.41;84.62;101677.72;5058538;28;20446;-68
2022/02/09 07:09:24;;;;;;;26.50;20.67;;;;;;;9.35;85.25;101677.53;5058012;28;20436;-68
2022/02/09 07:11:52;;;;;;;25.03;18.63;;;;;;;9.50;84.94;101675.38;5058082;28;20181;-68
2022/02/09 07:14:23;;;;;;;26.67;20.67;;;;;;;9.21;84.62;101679.72;5058448;28;20809;-68
2022/02/09 07:16:48;;;;;;;25.70;20.90;;;;;;;9.18;84.97;101682.22;5058089;28;20913;-69
2022/02/09 07:19:13;;;;;;;28.20;20.33;;;;;;;9.20;85.74;101683.16;5058159;28;20394;-68
2022/02/09 07:21:40;;;;;;;25.90;21.10;;;;;;;9.04;86.03;101685.28;5058411;28;20170;-69
2022/02/09 07:24:11;;;;;;;26.10;20.13;;;;;;;9.35;85.79;101669.72;5057889;28;20228;-69
2022/02/09 07:29:08;;;;;;;30.77;21.30;;;;;;;9.34;84.26;101676.66;5057879;28;20395;-68
2022/02/09 07:31:34;;;;;;;26.43;21.97;;;;;;;9.45;83.22;101669.16;5058137;28;20409;-67
2022/02/09 07:33:59;;;;;;;27.63;20.90;;;;;;;9.25;83.90;101673.78;5058184;28;20383;-68
2022/02/09 07:36:27;;;;;;;26.30;22.10;;;;;;;9.65;83.44;101674.94;5057600;28;20221;-69
2022/02/09 07:38:52;;;;;;;28.70;20.90;;;;;;;9.76;82.00;101668.31;5057888;28;20481;-70
2022/02/09 07:41:18;;;;;;;24.17;20.20;;;;;;;9.32;82.95;101667.91;5058282;28;20431;-70
2022/02/09 07:44:31;;;;;;;25.63;20.50;;;;;;;9.56;82.22;101675.53;5057738;28;20188;-71
2022/02/09 07:46:52;;;;;;;23.27;18.30;;;;;;;9.42;82.71;101674.28;5055624;28;20181;-70
2022/02/09 07:49:49;;;;;;;21.67;18.93;;;;;;;9.24;82.80;101674.59;5057704;28;20416;-73
2022/02/09 07:52:22;;;;;;;26.77;19.00;;;;;;;9.47;82.19;101664.00;5057604;28;20387;-71
2022/02/09 07:54:47;;;;;;;21.90;18.00;;;;;;;9.70;81.57;101667.25;5057595;28;20394;-72
2022/02/09 07:57:12;;;;;;;21.13;17.60;;;;;;;9.47;81.78;101669.19;5057647;28;20555;-71
2022/02/09 07:59:38;;;;;;;19.37;15.53;;;;;;;10.02;80.61;101670.75;5058111;28;20192;-63
2022/02/09 08:02:03;;;;;;;19.17;16.70;;;;;;;10.82;77.77;101676.25;5057701;28;20173;-64
2022/02/09 08:04:28;;;;;;;22.80;16.37;;;;;;;10.49;76.19;101669.38;5055020;28;20173;-72
2022/02/09 08:06:57;;;;;;;19.03;17.03;;;;;;;9.89;78.64;101666.94;5057667;28;20313;-71
2022/02/09 08:12:26;;;;;;;21.83;16.00;;;;;;;9.18;81.26;101666.63;5057592;28;20833;-72
2022/02/09 08:31:21;;;;;;;17.50;13.90;;;;;;;9.52;79.88;101665.00;5061165;28;20401;-69
2022/02/09 08:33:45;;;;;;;18.27;14.17;;;;;;;9.68;79.38;101650.72;5060883;28;20391;-71
2022/02/09 08:36:11;;;;;;;13.70;12.30;;;;;;;9.55;79.76;101659.88;5078612;28;20493;-72
2022/02/09 08:38:38;;;;;;;15.70;12.30;;;;;;;9.84;79.01;101649.44;5062010;28;20427;-71
2022/02/09 08:41:04;;;;;;;16.30;12.70;;;;;;;9.68;78.88;101656.78;5061467;28;20173;-71
2022/02/09 08:43:29;;;;;;;16.40;12.20;;;;;;;9.56;79.47;101659.06;5043402;28;20701;-71
2022/02/09 08:45:54;;;;;;;14.47;12.33;;;;;;;10.00;78.20;101653.31;5060818;28;20445;-71
2022/02/09 08:48:20;;;;;;;14.10;12.63;;;;;;;9.80;77.83;101645.84;5061291;28;20625;-72
2022/02/09 08:50:50;;;;;;;13.43;11.47;;;;;;;9.84;78.39;101642.47;5061029;28;20319;-71
2022/02/09 08:53:17;;;;;;;12.87;11.10;;;;;;;9.80;78.22;101640.63;5060726;28;20416;-70
2022/02/09 08:55:43;;;;;;;14.23;11.00;;;;;;;9.92;77.02;101655.72;5061160;28;20471;-68
2022/02/09 08:58:09;;;;;;;12.60;11.03;;;;;;;9.99;76.87;101644.63;5060877;28;20399;-69
2022/02/09 09:00:37;;;;;;;13.10;11.70;;;;;;;9.82;77.25;101661.50;5071738;28;20168;-69
2022/02/09 09:03:11;;;;;;;14.90;10.90;;;;;;;10.27;76.22;101651.44;5080714;28;20184;-71
2022/02/09 09:05:59;;;;;;;15.30;12.20;;;;;;;9.91;76.28;101646.13;5080395;28;20405;-72
2022/02/09 09:09:00;;;;;;;13.90;12.50;;;;;;;10.03;76.20;101648.19;5079957;28;20803;-72
2022/02/09 09:11:48;;;;;;;14.23;10.93;;;;;;;10.16;76.03;101654.59;5080603;28;20791;-70
2022/02/09 09:17:30;;;;;;;15.17;12.10;;;;;;;10.30;76.16;101642.81;5080166;28;20436;-71
2022/02/09 09:58:01;;;;;;;13.13;11.83;;;;;;;10.26;75.28;101622.72;5079722;28;20448;-71
2022/02/09 09:58:48;;;;;;;13.50;11.80;;;;;;;10.01;75.43;101632.53;5079595;28;20790;-71
2022/02/09 10:01:20;;;;;;;14.20;12.70;;;;;;;10.38;73.96;101630.88;5079074;28;20458;-72
2022/02/09 10:31:55;;;;;;;13.70;12.17;;;;;;;10.42;73.64;101648.38;5078817;28;20823;-72
2022/02/09 10:34:26;;;;;;;10.63;9.63;;;;;;;10.01;74.57;101652.47;5077054;28;20423;-71
2022/02/09 10:37:01;;;;;;;13.70;10.70;;;;;;;10.52;73.20;101640.78;5078743;28;20470;-70
2022/02/09 10:39:45;;;;;;;11.30;10.20;;;;;;;10.23;73.38;101640.91;5078117;28;20476;-71
2022/02/09 10:42:21;;;;;;;12.10;10.90;;;;;;;10.44;72.92;101636.25;5078560;28;20479;-71
2022/02/09 10:44:51;;;;;;;11.27;9.93;;;;;;;10.57;72.90;101637.44;5078355;28;20422;-71
2022/02/09 10:47:34;;;;;;;12.57;11.27;;;;;;;10.69;72.08;101639.44;5078601;28;20567;-71
2022/02/09 10:50:09;;;;;;;10.70;9.60;;;;;;;10.53;72.58;101639.94;5078225;28;20422;-69
2022/02/09 10:52:35;;;;;;;10.93;9.83;;;;;;;10.47;72.42;101647.59;5078392;28;20703;-71
2022/02/09 10:55:01;;;;;;;10.00;8.73;;;;;;;10.19;72.90;101642.53;5078202;28;20433;-69
2022/02/09 10:57:26;;;;;;;12.93;10.67;;;;;;;10.57;72.34;101639.16;5078756;28;20746;-69
2022/02/09 10:59:52;;;;;;;12.63;9.50;;;;;;;10.24;73.40;101645.25;5075108;28;20185;-69
2022/02/09 11:02:19;;;;;;;11.80;9.73;;;;;;;10.14;73.54;101638.06;5041156;28;20177;-69
2022/02/09 11:04:47;;;;;;;10.90;9.90;;;;;;;10.49;73.21;101645.91;5040945;28;20431;-69
2022/02/09 11:07:15;;;;;;;10.77;9.70;;;;;;;10.08;74.71;101643.97;5058506;28;20415;-70
2022/02/09 11:09:40;;;;;;;10.20;9.00;;;;;;;10.28;74.51;101634.97;5058245;28;20429;-70
2022/02/09 11:12:06;;;;;;;10.10;9.10;;;;;;;10.17;74.96;101640.72;5058458;28;20416;-70
2022/02/09 11:14:31;;;;;;;11.07;9.90;;;;;;;10.17;74.74;101633.78;5041634;28;20166;-70
2022/02/09 11:17:03;;;;;;;10.60;8.70;;;;;;;10.04;74.31;101642.13;5057959;28;20209;-68
2022/02/09 11:19:35;;;;;;;11.13;8.70;;;;;;;10.07;74.50;101631.81;5058160;28;20492;-71
2022/02/09 11:22:11;;;;;;;9.50;8.60;;;;;;;9.76;75.68;101631.84;5043547;28;20426;-71
2022/02/09 11:24:46;;;;;;;8.07;7.27;;;;;;;10.33;73.97;101635.06;5061300;28;20403;-70
2022/02/09 11:27:24;;;;;;;9.30;8.40;;;;;;;10.49;73.80;101640.72;5060736;28;20405;-71
2022/02/09 11:30:13;;;;;;;11.07;8.27;;;;;;;10.16;74.27;101632.03;5058234;28;20415;-71
2022/02/09 11:33:21;;;;;;;8.30;7.30;;;;;;;10.47;73.41;101634.56;5058312;28;20488;-71
2022/02/09 11:36:20;;;;;;;8.87;8.00;;;;;;;10.68;72.84;101629.84;5072384;28;20753;-70
2022/02/09 11:38:51;;;;;;;8.13;7.17;;;;;;;10.04;74.99;101621.28;5077659;28;20386;-73
2022/02/09 11:41:22;;;;;;;8.20;7.40;;;;;;;10.12;74.64;101632.81;5077848;28;20451;-74
2022/02/09 11:43:58;;;;;;;7.90;7.13;;;;;;;10.50;73.93;101632.00;5077695;28;20390;-71
2022/02/09 11:46:50;;;;;;;7.50;6.80;;;;;;;9.99;75.52;101635.94;5077772;28;20468;-72
2022/02/09 11:52:25;;;;;;;6.60;6.00;;;;;;;10.37;74.49;101634.31;5085131;28;20418;-71
2022/02/09 11:58:30;;;;;;;6.50;5.90;;;;;;;9.89;76.10;101630.47;5081551;28;20909;-72
2022/02/09 12:09:45;;;;;;;6.97;6.07;;;;;;;10.41;75.36;101610.09;5081611;28;20397;-72
2022/02/09 12:12:17;;;;;;;7.00;6.40;;;;;;;10.34;75.62;101626.41;5035854;28;20433;-73
2022/02/09 12:14:50;;;;;;;7.43;6.67;;;;;;;10.36;75.82;101616.91;5081458;28;20659;-74
2022/02/09 12:20:02;;;;;;;8.97;6.60;;;;;;;10.33;75.90;101610.72;5081431;28;20398;-70
2022/02/09 12:22:36;;;;;;;7.00;6.40;;;;;;;9.92;76.49;101612.31;5081351;28;20427;-71
2022/02/09 12:25:02;;;;;;;7.03;6.43;;;;;;;10.31;76.60;101605.50;5081131;28;20514;-71
2022/02/09 12:27:27;;;;;;;7.00;6.30;;;;;;;10.32;76.56;101599.41;5081623;28;20414;-72
2022/02/09 12:30:10;;;;;;;7.40;6.70;;;;;;;10.07;76.95;101603.16;5063722;28;20260;-72
2022/02/09 12:32:35;;;;;;;6.70;6.10;;;;;;;10.20;77.30;101609.53;5089200;28;20172;-72
2022/02/09 12:35:09;;;;;;;7.43;6.80;;;;;;;10.42;77.01;101604.03;5083641;28;20451;-73
2022/02/09 12:37:37;;;;;;;8.53;7.30;;;;;;;10.60;75.44;101611.41;5078230;28;20569;-72
2022/02/09 12:40:10;;;;;;;5.90;5.20;;;;;;;9.93;77.40;101613.19;5063354;28;20397;-72
2022/02/09 12:42:40;;;;;;;7.50;5.67;;;;;;;10.13;77.27;101605.88;5080728;28;20425;-73
2022/02/09 12:45:13;;;;;;;7.80;6.80;;;;;;;9.95;77.52;101601.09;5080826;28;20406;-73
2022/02/09 12:47:41;;;;;;;7.13;6.53;;;;;;;10.30;77.63;101601.13;5080942;28;20541;-70
2022/02/09 12:50:12;;;;;;;7.33;6.40;;;;;;;9.78;79.47;101611.97;5080913;28;20415;-70
2022/02/09 12:52:39;;;;;;;7.50;6.77;;;;;;;10.09;78.75;101604.03;5081148;28;20394;-72
2022/02/09 12:55:07;;;;;;;7.67;6.07;;;;;;;9.94;78.67;101592.41;5060952;28;20499;-74
2022/02/09 12:57:38;;;;;;;8.13;6.13;;;;;;;10.06;78.62;101612.66;5060891;28;20456;-75
2022/02/09 13:00:07;;;;;;;7.23;6.57;;;;;;;10.49;78.16;101615.50;5060793;28;20840;-75
2022/02/09 13:02:45;;;;;;;6.23;5.63;;;;;;;10.28;78.19;101610.59;5060278;28;20420;-74
2022/02/09 13:05:11;;;;;;;6.00;5.50;;;;;;;9.78;80.84;101595.44;5060449;28;20465;-74
2022/02/09 13:07:36;;;;;;;6.30;5.70;;;;;;;9.80;82.21;101608.53;5060473;28;20453;-74
2022/02/09 13:10:02;;;;;;;6.67;6.07;;;;;;;9.97;81.97;101606.34;5063074;28;20177;-74
2022/02/09 13:12:32;;;;;;;7.40;6.70;;;;;;;9.90;81.86;101607.91;5080638;28;20204;-72
2022/02/09 13:15:17;;;;;;;5.90;5.30;;;;;;;9.74;83.41;101601.41;5062974;28;20680;-70
2022/02/09 14:06:40;;;;;;;8.27;7.47;;;;;;;9.81;85.77;101603.34;5079678;28;20405;-70
2022/02/09 14:14:09;;;;;;;8.17;7.40;;;;;;;9.66;86.50;101610.72;5078276;28;20669;-70
2022/02/09 14:35:48;;;;;;;8.10;7.40;;;;;;;9.72;87.94;101623.94;5078484;28;20437;-72
2022/02/09 14:57:01;;;;;;;7.33;6.67;;;;;;;9.83;87.62;101611.19;5078967;28;20433;-70
2022/02/09 15:02:08;;;;;;;8.80;7.90;;;;;;;9.96;88.17;101608.06;5078192;28;20473;-70
2022/02/09 15:07:44;;;;;;;8.07;7.37;;;;;;;12.46;77.54;101597.66;5046624;28;20390;-68
2022/02/09 15:10:19;;;;;;;7.43;6.67;;;;;;;11.42;79.01;101610.59;5077932;28;20431;-68
2022/02/09 15:15:27;;;;;;;6.60;6.10;;;;;;;12.70;76.14;101601.50;5078234;28;20393;-68
2022/02/09 15:21:16;;;;;;;6.73;6.13;;;;;;;10.36;83.21;101621.25;5078196;28;20388;-72
2022/02/09 15:23:08;;;;;;;7.00;6.40;;;;;;;10.23;85.36;101628.75;5052984;28;20571;-72
2022/02/09 15:25:34;;;;;;;7.03;6.43;;;;;;;10.16;85.70;101615.50;5078002;28;20661;-73
2022/02/09 15:28:01;;;;;;;7.40;6.60;;;;;;;10.44;85.32;101620.63;5078028;28;20411;-73
2022/02/09 15:30:31;;;;;;;7.63;6.73;;;;;;;10.04;85.93;101618.66;5077824;28;20686;-73
2022/02/09 15:32:59;;;;;;;9.20;8.30;;;;;;;10.15;86.87;101624.16;5078431;28;20800;-73
2022/02/09 15:35:34;;;;;;;8.17;7.43;;;;;;;10.24;86.02;101627.00;5071814;28;20526;-73
2022/02/09 15:38:05;;;;;;;7.97;7.27;;;;;;;9.95;87.08;101634.97;5098288;28;20684;-72
2022/02/09 15:40:36;;;;;;;7.23;6.53;;;;;;;9.90;87.82;101634.84;5097864;28;20388;-73
2022/02/09 15:59:42;;;;;;;6.63;6.03;;;;;;;10.14;87.11;101648.47;5097899;28;20385;-73
2022/02/09 16:05:39;;;;;;;6.53;5.93;;;;;;;10.29;86.51;101647.13;5080336;28;20670;-70
2022/02/09 16:24:02;;;;;;;5.23;3.87;;;;;;;10.17;83.14;101658.97;5097460;28;20397;-71
2022/02/09 16:35:32;;;;;;;8.17;5.20;;;;;;;9.94;82.99;101672.25;5091990;28;20459;-71
2022/02/09 16:48:31;;;;;;;5.10;4.60;;;;;;;9.70;81.92;101683.78;5049947;28;20480;-76
2022/02/09 16:50:59;;;;;;;8.80;5.80;;;;;;;10.11;81.66;101685.75;5081029;28;20732;-75
2022/02/09 17:08:28;;;;;;;12.30;5.70;;;;;;;9.67;80.65;101688.00;5081013;28;20441;-73
2022/02/09 17:18:46;;;;;;;8.67;5.50;;;;;;;9.70;80.09;101709.81;5080289;28;20408;-72
2022/02/09 17:21:09;;;;;;;8.30;5.20;;;;;;;10.08;78.71;101714.31;5080000;28;20849;-71
2022/02/09 17:23:35;;;;;;;11.70;5.43;;;;;;;10.10;79.10;101716.13;5080099;28;20404;-71
2022/02/09 17:26:00;;;;;;;10.13;5.60;;;;;;;9.77;79.85;101710.88;5080183;28;20176;-70
2022/02/09 17:28:26;;;;;;;8.20;5.60;;;;;;;10.00;78.36;101713.22;5063081;28;20195;-69
2022/02/09 17:31:01;;;;;;;13.43;6.07;;;;;;;10.00;78.44;101716.72;5080417;28;20172;-70
2022/02/09 17:36:03;;;;;;;14.80;5.90;;;;;;;9.87;79.32;101712.88;5081695;28;20470;-70
2022/02/09 17:38:49;;;;;;;13.33;5.80;;;;;;;10.14;78.49;101714.50;5080753;28;20176;-71
2022/02/09 17:55:29;;;;;;;11.73;5.63;;;;;;;9.45;79.35;101716.00;5079245;28;20473;-71
2022/02/09 17:57:54;;;;;;;9.23;6.07;;;;;;;9.36;79.52;101716.63;5079688;28;20458;-71
2022/02/09 18:00:19;;;;;;;9.33;7.30;;;;;;;9.77;78.81;101713.47;5079383;28;20506;-72
2022/02/09 18:02:50;;;;;;;8.90;5.80;;;;;;;9.42;78.51;101713.31;5079448;28;20867;-70
2022/02/09 18:05:24;;;;;;;12.30;6.37;;;;;;;9.43;79.42;101721.19;5079501;28;20176;-71
2022/02/09 18:07:56;;;;;;;11.53;6.17;;;;;;;9.55;78.46;101719.75;5079393;28;20441;-71
2022/02/09 18:16:08;;;;;;;8.13;6.00;;;;;;;9.39;79.09;101726.22;5079335;28;20438;-71
2022/02/09 18:29:26;;;;;;;11.40;6.30;;;;;;;9.51;79.21;101728.31;5059188;28;20424;-72
2022/02/09 18:45:09;;;;;;;8.93;6.90;;;;;;;9.42;78.08;101716.78;5058662;28;20710;-72
2022/02/09 18:47:55;;;;;;;11.33;7.90;;;;;;;9.26;79.50;101719.78;5058866;28;20470;-72
2022/02/09 19:03:53;;;;;;;13.20;7.73;;;;;;;9.58;79.15;101723.34;5058661;28;20435;-71
2022/02/09 19:06:25;;;;;;;15.03;9.07;;;;;;;9.50;78.81;101730.06;5058511;28;20398;-70
2022/02/09 19:33:10;;;;;;;13.30;9.33;;;;;;;9.17;80.78;101737.69;5058013;28;20929;-71
2022/02/09 19:52:04;;;;;;;15.60;11.00;;;;;;;9.10;81.36;101732.28;5077977;28;20420;-70
2022/02/09 19:57:08;;;;;;;16.23;10.50;;;;;;;8.93;83.12;101725.69;5077729;28;20752;-70
2022/02/09 19:59:36;;;;;;;18.63;10.60;;;;;;;8.87;82.20;101726.34;5077825;28;20404;-69
2022/02/09 20:02:02;;;;;;;14.77;10.40;;;;;;;9.04;81.38;101726.03;5077602;28;20431;-71
2022/02/09 20:04:27;;;;;;;16.57;11.03;;;;;;;9.26;80.88;101722.38;5077543;28;20434;-71
2022/02/09 20:06:53;;;;;;;17.40;10.83;;;;;;;8.89;81.38;101734.19;5078174;28;20382;-70
2022/02/09 20:09:18;;;;;;;16.80;10.70;;;;;;;9.23;80.97;101735.31;5077975;28;20180;-70
2022/02/09 20:11:44;;;;;;;23.97;10.10;;;;;;;8.78;82.62;101731.25;5077689;28;20173;-70
2022/02/09 20:14:13;;;;;;;15.40;9.87;;;;;;;8.85;81.99;101741.03;5081497;28;20196;-70
2022/02/09 20:16:39;;;;;;;17.57;9.80;;;;;;;8.81;81.02;101736.56;5064158;28;20200;-70
2022/02/09 20:19:05;;;;;;;17.07;10.00;;;;;;;8.87;81.52;101741.94;5081469;28;20427;-71
2022/02/09 20:21:31;;;;;;;17.23;9.70;;;;;;;8.73;82.20;101732.84;5064459;28;20438;-71
2022/02/09 20:23:56;;;;;;;13.20;10.00;;;;;;;9.17;80.74;101730.75;5081264;28;20172;-71
2022/02/09 20:26:24;;;;;;;15.73;9.90;;;;;;;8.86;80.91;101723.72;5081202;28;20500;-71
2022/02/09 20:28:57;;;;;;;14.27;9.80;;;;;;;9.30;79.88;101715.56;5044902;28;20174;-70
2022/02/09 20:31:29;;;;;;;17.77;10.07;;;;;;;8.86;80.44;101728.91;5061333;28;20473;-71
2022/02/09 20:34:00;;;;;;;19.43;9.07;;;;;;;8.89;80.74;101731.59;5061019;28;20389;-69
2022/02/09 20:36:26;;;;;;;17.90;9.23;;;;;;;9.14;80.59;101740.22;5080866;28;20509;-70
2022/02/09 20:38:55;;;;;;;16.70;9.97;;;;;;;9.20;79.23;101732.56;5080442;28;20389;-71
2022/02/09 20:41:21;;;;;;;14.87;8.63;;;;;;;8.97;80.76;101745.75;5081144;28;20525;-70
2022/02/09 20:44:18;;;;;;;21.07;9.63;;;;;;;8.54;81.82;101744.34;5084511;28;20484;-71
2022/02/09 20:46:35;;;;;;;22.90;9.90;;;;;;;8.58;82.22;101748.81;5083954;28;20568;-69
2022/02/09 20:49:03;;;;;;;22.93;11.80;;;;;;;8.70;82.32;101743.09;5064383;28;20689;-71
2022/02/09 20:51:29;;;;;;;19.67;9.43;;;;;;;8.44;82.71;101753.47;5064990;28;20248;-71
2022/02/09 20:53:56;;;;;;;12.80;9.53;;;;;;;8.46;82.90;101750.97;5096972;28;20401;-70
2022/02/09 20:56:21;;;;;;;16.27;11.27;;;;;;;8.70;82.10;101751.81;5080315;28;20463;-71
2022/02/09 20:58:49;;;;;;;23.37;13.10;;;;;;;8.92;81.94;101756.00;5081202;28;20626;-70
2022/02/09 21:01:19;;;;;;;19.13;10.17;;;;;;;8.94;80.86;101750.84;5081324;28;20226;-68
2022/02/09 21:08:51;;;;;;;20.10;10.87;;;;;;;8.96;80.12;101746.59;5080740;28;20242;-71
2022/02/09 21:11:24;;;;;;;19.03;10.00;;;;;;;8.65;81.22;101747.28;5080620;28;20456;-70
2022/02/09 21:14:16;;;;;;;15.90;9.30;;;;;;;8.48;82.02;101754.50;5080316;28;20395;-70
2022/02/09 21:19:37;;;;;;;17.57;10.00;;;;;;;8.58;81.53;101751.41;5081636;28;20828;-71
2022/02/09 21:22:41;;;;;;;17.37;10.00;;;;;;;8.59;80.61;101758.34;5080958;28;20400;-70
2022/02/09 21:25:40;;;;;;;16.00;8.80;;;;;;;8.67;80.72;101756.88;5079621;28;20382;-71
2022/02/09 21:45:11;;;;;;;14.27;8.57;;;;;;;8.64;80.79;101751.59;5080074;28;20735;-68
2022/02/09 21:58:21;;;;;;;15.77;9.20;;;;;;;8.71;79.57;101730.19;5063174;28;20419;-69
2022/02/09 22:01:04;;;;;;;11.70;8.77;;;;;;;8.67;80.25;101737.81;5079968;28;20416;-68
2022/02/09 22:06:31;;;;;;;16.63;8.70;;;;;;;8.26;80.25;101738.13;5079589;28;20444;-69
2022/02/09 22:22:28;;;;;;;18.97;10.33;;;;;;;8.26;81.41;101723.41;5079329;28;20898;-69
2022/02/09 22:27:40;;;;;;;13.20;8.70;;;;;;;8.06;81.83;101717.53;5079230;28;20394;-71
2022/02/09 22:30:45;;;;;;;16.33;10.43;;;;;;;8.00;81.48;101712.13;5078988;28;20558;-70
2022/02/09 22:54:59;;;;;;;21.60;10.63;;;;;;;8.23;81.16;101699.94;5030276;28;20765;-71
2022/02/09 22:57:40;;;;;;;17.73;9.47;;;;;;;7.98;81.77;101699.91;5058442;28;20484;-71
2022/02/09 23:00:15;;;;;;;18.93;10.50;;;;;;;7.98;81.81;101700.78;5058536;28;20425;-71
2022/02/09 23:02:45;;;;;;;14.73;9.30;;;;;;;8.12;81.57;101706.50;5028730;28;20439;-72
2022/02/09 23:24:18;;;;;;;24.80;11.80;;;;;;;8.07;80.77;101685.53;5058111;28;20397;-71
